EWG1SP LSZH-EDDL
Flight info
| Callsign | EWG1SP |
|---|---|
| Flight time | N/A |
| Altitude | 32000 |
| Route | DEGES Z1 ETAGO DCT HAREM/N0421F330 DCT LOHRE/N0421F320 Z850 ADEMI T854 DOMUX DOMUX1A |
| Aircraft | A320/M-SDE3FGHIRWY/LB1 |
Departure
| Time | N/A |
|---|---|
| Airport | Zürich Airport (LSZH) |
Arrival
| Time | 2026-05-03 20:27 |
|---|---|
| Airport | Düsseldorf Airport (EDDL) |
| Time | Latitude | Longitude | Altitude | Speed | Heading |
|---|---|---|---|---|---|
| 2026-05-03 20:15 | 51.42241 | 7.50208 | 11247 ft | 277 kts | 259° |
| 2026-05-03 20:15 | 51.41560 | 7.47427 | 10912 ft | 273 kts | 233° |
| 2026-05-03 20:15 | 51.40271 | 7.45197 | 10539 ft | 273 kts | 224° |
| 2026-05-03 20:15 | 51.38822 | 7.43234 | 10214 ft | 272 kts | 216° |
| 2026-05-03 20:16 | 51.37238 | 7.41586 | 9872 ft | 272 kts | 214° |
| 2026-05-03 20:16 | 51.35650 | 7.39998 | 9676 ft | 264 kts | 213° |
| 2026-05-03 20:16 | 51.34119 | 7.38474 | 9546 ft | 255 kts | 213° |
| 2026-05-03 20:16 | 51.32634 | 7.37006 | 9325 ft | 248 kts | 213° |
| 2026-05-03 20:17 | 51.31212 | 7.35470 | 9032 ft | 245 kts | 225° |
| 2026-05-03 20:17 | 51.30339 | 7.33198 | 8701 ft | 242 kts | 255° |
| 2026-05-03 20:17 | 51.30337 | 7.30532 | 8357 ft | 245 kts | 284° |
| 2026-05-03 20:17 | 51.31214 | 7.28195 | 7993 ft | 252 kts | 314° |
| 2026-05-03 20:18 | 51.32719 | 7.26705 | 7612 ft | 258 kts | 331° |
| 2026-05-03 20:18 | 51.34362 | 7.25561 | 7258 ft | 258 kts | 333° |
| 2026-05-03 20:18 | 51.35451 | 7.24833 | 7116 ft | 253 kts | 333° |
| 2026-05-03 20:18 | 51.37039 | 7.23788 | 6997 ft | 241 kts | 333° |
| 2026-05-03 20:19 | 51.38569 | 7.22795 | 6726 ft | 235 kts | 333° |
| 2026-05-03 20:19 | 51.40080 | 7.21814 | 6385 ft | 233 kts | 333° |
| 2026-05-03 20:19 | 51.41571 | 7.20846 | 6026 ft | 231 kts | 333° |
| 2026-05-03 20:19 | 51.43042 | 7.19845 | 5652 ft | 228 kts | 326° |
| 2026-05-03 20:20 | 51.43481 | 7.19372 | 5476 ft | 225 kts | 312° |
| 2026-05-03 20:20 | 51.44095 | 7.18087 | 5285 ft | 215 kts | 291° |
| 2026-05-03 20:20 | 51.44576 | 7.16050 | 5077 ft | 205 kts | 283° |
| 2026-05-03 20:20 | 51.44903 | 7.13852 | 4772 ft | 200 kts | 272° |
| 2026-05-03 20:21 | 51.44803 | 7.11651 | 4514 ft | 198 kts | 253° |
| 2026-05-03 20:21 | 51.44255 | 7.09652 | 4273 ft | 196 kts | 236° |
| 2026-05-03 20:21 | 51.43441 | 7.07910 | 4031 ft | 195 kts | 233° |
| 2026-05-03 20:21 | 51.42628 | 7.06180 | 3800 ft | 194 kts | 233° |
| 2026-05-03 20:22 | 51.41819 | 7.04462 | 3534 ft | 193 kts | 233° |
| 2026-05-03 20:22 | 51.41013 | 7.02750 | 3310 ft | 191 kts | 233° |
| 2026-05-03 20:22 | 51.40494 | 7.01650 | 3178 ft | 190 kts | 233° |
| 2026-05-03 20:22 | 51.39697 | 6.99960 | 3060 ft | 188 kts | 233° |
| 2026-05-03 20:23 | 51.38909 | 6.98290 | 3004 ft | 188 kts | 233° |
| 2026-05-03 20:23 | 51.38131 | 6.96643 | 2943 ft | 180 kts | 233° |
| 2026-05-03 20:23 | 51.37399 | 6.95094 | 2765 ft | 169 kts | 233° |
| 2026-05-03 20:23 | 51.36703 | 6.93622 | 2541 ft | 163 kts | 233° |
| 2026-05-03 20:24 | 51.36037 | 6.92214 | 2348 ft | 153 kts | 233° |
| 2026-05-03 20:24 | 51.35425 | 6.90920 | 2163 ft | 140 kts | 233° |
| 2026-05-03 20:24 | 51.34845 | 6.89695 | 1964 ft | 137 kts | 232° |
| 2026-05-03 20:24 | 51.34276 | 6.88494 | 1773 ft | 135 kts | 232° |
| 2026-05-03 20:25 | 51.33712 | 6.87305 | 1591 ft | 134 kts | 232° |
| 2026-05-03 20:25 | 51.33148 | 6.86117 | 1431 ft | 133 kts | 232° |
| 2026-05-03 20:25 | 51.32591 | 6.84931 | 1238 ft | 133 kts | 232° |
| 2026-05-03 20:25 | 51.32168 | 6.84039 | 1104 ft | 134 kts | 231° |
| 2026-05-03 20:26 | 51.31601 | 6.82855 | 889 ft | 135 kts | 231° |
| 2026-05-03 20:26 | 51.31034 | 6.81656 | 728 ft | 137 kts | 231° |
| 2026-05-03 20:26 | 51.30459 | 6.80442 | 488 ft | 137 kts | 230° |
| 2026-05-03 20:26 | 51.29880 | 6.79249 | 358 ft | 138 kts | 232° |
| 2026-05-03 20:27 | 51.29304 | 6.78026 | 162 ft | 137 kts | 232° |
| 2026-05-03 20:27 | 51.28779 | 6.76919 | 127 ft | 108 kts | 232° |
| 2026-05-03 20:27 | 51.28428 | 6.76182 | 127 ft | 59 kts | 231° |
| 2026-05-03 20:27 | 51.28297 | 6.75927 | 126 ft | 31 kts | 230° |
| 2026-05-03 20:28 | 51.28284 | 6.75904 | 127 ft | 26 kts | 230° |
| 2026-05-03 20:28 | 51.28279 | 6.75892 | 127 ft | 23 kts | 231° |
| 2026-05-03 20:28 | 51.28174 | 6.75647 | 125 ft | 28 kts | 233° |
| 2026-05-03 20:28 | 51.28056 | 6.75498 | 127 ft | 19 kts | 180° |
| 2026-05-03 20:29 | 51.27955 | 6.75567 | 125 ft | 11 kts | 136° |
| 2026-05-03 20:29 | 51.27962 | 6.75669 | 125 ft | 9 kts | 57° |
| 2026-05-03 20:29 | 51.27995 | 6.75741 | 127 ft | 7 kts | 52° |
| 2026-05-03 20:29 | 51.28024 | 6.75801 | 127 ft | 6 kts | 52° |
| 2026-05-03 20:30 | 51.28050 | 6.75855 | 128 ft | 6 kts | 53° |
| 2026-05-03 20:30 | 51.28080 | 6.75919 | 127 ft | 9 kts | 53° |
| 2026-05-03 20:30 | 51.28097 | 6.76024 | 127 ft | 11 kts | 121° |
| 2026-05-03 20:30 | 51.28030 | 6.76068 | 124 ft | 8 kts | 129° |
| 2026-05-03 20:31 | 51.28007 | 6.76136 | 126 ft | 7 kts | 117° |
| 2026-05-03 20:31 | 51.27997 | 6.76166 | 125 ft | 0 kts | 118° |
| 2026-05-03 20:31 | 51.27997 | 6.76167 | 125 ft | 0 kts | 118° |